createdAt,value
2023-04-04T00:00:00.855Z,60.20
2023-04-04T00:01:00.743Z,60.20
2023-04-04T00:02:03.105Z,60.30
2023-04-04T00:03:00.839Z,60.30
2023-04-04T00:04:00.867Z,60.30
2023-04-04T00:05:00.757Z,60.30
2023-04-04T00:06:00.805Z,60.30
2023-04-04T00:07:00.798Z,60.50
2023-04-04T00:08:01.403Z,60.50
2023-04-04T00:09:00.766Z,60.50
2023-04-04T00:10:00.820Z,60.50
2023-04-04T00:11:00.915Z,60.50
2023-04-04T00:12:00.813Z,60.80
2023-04-04T00:13:01.347Z,60.80
2023-04-04T00:14:00.878Z,60.80
2023-04-04T00:15:00.813Z,60.80
2023-04-04T00:16:00.955Z,60.80
2023-04-04T00:17:00.750Z,60.95
2023-04-04T00:18:02.511Z,60.95
2023-04-04T00:19:01.018Z,60.95
2023-04-04T00:20:00.783Z,60.95
2023-04-04T00:21:00.776Z,60.95
2023-04-04T00:22:00.762Z,61.07
2023-04-04T00:23:00.829Z,61.07
2023-04-04T00:24:00.761Z,61.07
2023-04-04T00:25:00.810Z,61.07
2023-04-04T00:26:00.756Z,61.07
2023-04-04T00:27:00.983Z,61.35
2023-04-04T00:28:01.334Z,61.35
2023-04-04T00:29:00.769Z,61.35
2023-04-04T00:30:00.764Z,61.35
2023-04-04T00:31:00.780Z,61.35
2023-04-04T00:32:00.802Z,61.62
2023-04-04T00:33:00.817Z,61.62
2023-04-04T00:34:00.761Z,61.62
2023-04-04T00:35:00.780Z,61.62
2023-04-04T00:36:00.813Z,61.62
2023-04-04T00:37:00.773Z,61.99
2023-04-04T00:38:00.805Z,61.99
2023-04-04T00:39:00.800Z,61.99
2023-04-04T00:40:00.757Z,61.99
2023-04-04T00:41:00.778Z,61.99
2023-04-04T00:42:00.779Z,62.18
2023-04-04T00:43:01.084Z,62.18
2023-04-04T00:44:00.910Z,62.18
2023-04-04T00:45:01.008Z,62.18
2023-04-04T00:46:00.858Z,62.18
2023-04-04T00:47:01.094Z,62.29
2023-04-04T00:48:02.012Z,62.29
2023-04-04T00:49:00.763Z,62.29
2023-04-04T00:50:00.774Z,62.29
2023-04-04T00:51:00.780Z,62.29
2023-04-04T00:52:00.742Z,62.43
2023-04-04T00:53:00.834Z,62.43
2023-04-04T00:54:00.851Z,62.43
2023-04-04T00:55:00.847Z,62.43
2023-04-04T00:56:00.945Z,62.43
2023-04-04T00:57:01.396Z,62.70
2023-04-04T00:58:00.774Z,62.70
2023-04-04T00:59:00.900Z,62.70
2023-04-04T01:00:02.272Z,62.70
2023-04-04T01:01:00.829Z,62.70
2023-04-04T01:02:00.958Z,62.84
2023-04-04T01:03:00.798Z,62.84
2023-04-04T01:04:00.859Z,62.84
2023-04-04T01:05:02.105Z,62.84
2023-04-04T01:06:00.877Z,62.84
2023-04-04T01:07:01.174Z,63.07
2023-04-04T01:08:00.807Z,63.07
2023-04-04T01:09:01.313Z,63.07
2023-04-04T01:10:00.905Z,63.07
2023-04-04T01:11:01.054Z,63.07
2023-04-04T01:12:01.525Z,63.11
2023-04-04T01:13:00.788Z,63.11
2023-04-04T01:14:00.841Z,63.11
2023-04-04T01:15:00.795Z,63.11
2023-04-04T01:16:00.754Z,63.11
2023-04-04T01:17:01.295Z,63.40
2023-04-04T01:18:01.156Z,63.40
2023-04-04T01:19:01.166Z,63.40
2023-04-04T01:20:05.223Z,63.40
2023-04-04T01:21:01.941Z,63.40
2023-04-04T01:22:01.321Z,63.29
2023-04-04T01:23:02.146Z,63.29
2023-04-04T01:24:03.699Z,63.29
2023-04-04T01:25:03.449Z,63.29
2023-04-04T01:26:02.588Z,63.29
2023-04-04T01:27:00.808Z,63.37
2023-04-04T01:28:00.851Z,63.37
2023-04-04T01:29:00.786Z,63.37
2023-04-04T01:30:01.291Z,63.37
2023-04-04T01:31:01.313Z,63.37
2023-04-04T01:32:07.094Z,63.68
2023-04-04T01:33:05.629Z,63.68
2023-04-04T01:34:08.347Z,63.68
2023-04-04T01:35:10.678Z,63.68
2023-04-04T01:36:10.771Z,63.68
2023-04-04T01:37:02.987Z,63.75
2023-04-04T01:38:10.673Z,63.75
2023-04-04T01:39:10.663Z,63.75
2023-04-04T01:40:06.857Z,63.75
2023-04-04T01:41:02.304Z,63.75
2023-04-04T01:42:02.108Z,63.66
2023-04-04T01:43:01.074Z,63.66
2023-04-04T01:44:01.164Z,63.66
2023-04-04T01:45:00.837Z,63.66
2023-04-04T01:46:01.504Z,63.66
2023-04-04T01:47:00.763Z,63.78
2023-04-04T01:48:00.829Z,63.78
2023-04-04T01:49:00.752Z,63.78
2023-04-04T01:50:00.870Z,63.78
2023-04-04T01:51:00.796Z,63.78
2023-04-04T01:52:01.128Z,63.93
2023-04-04T01:53:00.755Z,63.93
2023-04-04T01:54:00.765Z,63.93
2023-04-04T01:55:00.981Z,63.93
2023-04-04T01:56:00.755Z,63.93
2023-04-04T01:57:00.746Z,64.21
2023-04-04T01:58:00.777Z,64.21
2023-04-04T01:59:00.869Z,64.21
2023-04-04T02:00:00.781Z,64.21
2023-04-04T02:01:00.760Z,64.21
2023-04-04T02:02:00.747Z,64.39
2023-04-04T02:03:00.861Z,64.39
2023-04-04T02:04:00.831Z,64.39
2023-04-04T02:05:00.771Z,64.39
2023-04-04T02:06:00.754Z,64.39
2023-04-04T02:07:00.776Z,64.58
2023-04-04T02:08:00.800Z,64.58
2023-04-04T02:09:00.766Z,64.58
2023-04-04T02:10:00.927Z,64.58
2023-04-04T02:11:00.753Z,64.58
2023-04-04T02:12:00.739Z,64.64
2023-04-04T02:13:00.766Z,64.64
2023-04-04T02:14:00.918Z,64.64
2023-04-04T02:15:00.787Z,64.64
2023-04-04T02:16:00.959Z,64.64
2023-04-04T02:17:00.760Z,64.73
2023-04-04T02:18:02.084Z,64.73
2023-04-04T02:19:00.800Z,64.73
2023-04-04T02:20:00.844Z,64.73
2023-04-04T02:21:00.767Z,64.73
2023-04-04T02:22:00.742Z,64.86
2023-04-04T02:23:00.752Z,64.86
2023-04-04T02:24:00.767Z,64.86
2023-04-04T02:25:00.814Z,64.86
2023-04-04T02:26:00.771Z,64.86
2023-04-04T02:27:00.754Z,65.04
2023-04-04T02:28:00.744Z,65.04
2023-04-04T02:29:00.778Z,65.04
2023-04-04T02:30:00.756Z,65.04
2023-04-04T02:31:01.437Z,65.04
2023-04-04T02:32:00.727Z,65.13
2023-04-04T02:33:00.809Z,65.13
2023-04-04T02:34:00.800Z,65.13
2023-04-04T02:35:00.757Z,65.13
2023-04-04T02:36:00.797Z,65.13
2023-04-04T02:37:00.792Z,65.45
2023-04-04T02:38:00.759Z,65.45
2023-04-04T02:39:00.757Z,65.45
2023-04-04T02:40:00.827Z,65.45
2023-04-04T02:41:00.813Z,65.45
2023-04-04T02:42:00.792Z,65.29
2023-04-04T02:43:00.729Z,65.29
2023-04-04T02:44:00.794Z,65.29
2023-04-04T02:45:00.802Z,65.29
2023-04-04T02:46:07.798Z,65.29
2023-04-04T02:47:00.776Z,65.55
2023-04-04T02:48:00.925Z,65.55
2023-04-04T02:49:00.766Z,65.55
2023-04-04T02:50:00.991Z,65.55
2023-04-04T02:51:00.866Z,65.55
2023-04-04T02:52:00.822Z,65.58
2023-04-04T02:53:01.251Z,65.58
2023-04-04T02:54:00.883Z,65.58
2023-04-04T02:55:00.781Z,65.58
2023-04-04T02:56:02.227Z,65.58
2023-04-04T02:57:00.770Z,65.62
2023-04-04T02:58:00.763Z,65.62
2023-04-04T02:59:00.801Z,65.62
2023-04-04T03:00:01.129Z,65.62
2023-04-04T03:01:00.758Z,65.62
2023-04-04T03:02:00.783Z,65.60
2023-04-04T03:03:00.885Z,65.60
2023-04-04T03:04:00.837Z,65.60
2023-04-04T03:05:00.784Z,65.60
2023-04-04T03:06:00.762Z,65.60
2023-04-04T03:07:00.778Z,65.63
2023-04-04T03:08:00.757Z,65.63
2023-04-04T03:09:00.746Z,65.63
2023-04-04T03:10:00.763Z,65.63
2023-04-04T03:11:00.772Z,65.63
2023-04-04T03:12:00.812Z,65.75
2023-04-04T03:13:00.798Z,65.75
2023-04-04T03:14:00.787Z,65.75
2023-04-04T03:15:00.835Z,65.75
2023-04-04T03:16:01.731Z,65.75
2023-04-04T03:17:00.850Z,65.87
2023-04-04T03:18:01.288Z,65.87
2023-04-04T03:19:00.802Z,65.87
2023-04-04T03:20:00.757Z,65.87
2023-04-04T03:21:00.756Z,65.87
2023-04-04T03:22:00.816Z,65.87
2023-04-04T03:23:00.806Z,65.87
2023-04-04T03:24:00.886Z,65.87
2023-04-04T03:25:00.760Z,65.87
2023-04-04T03:26:00.857Z,65.87
2023-04-04T03:27:00.800Z,65.91
2023-04-04T03:28:08.626Z,65.91
2023-04-04T03:29:00.827Z,65.91
2023-04-04T03:30:00.942Z,65.91
2023-04-04T03:31:02.418Z,65.91
2023-04-04T03:32:00.931Z,65.98
2023-04-04T03:33:08.010Z,65.98
2023-04-04T03:34:00.833Z,65.98
2023-04-04T03:35:00.794Z,65.98
2023-04-04T03:36:00.842Z,65.98
2023-04-04T03:37:00.805Z,66.00
2023-04-04T03:38:00.836Z,66.00
2023-04-04T03:39:00.791Z,66.00
2023-04-04T03:40:00.785Z,66.00
2023-04-04T03:41:00.978Z,66.00
2023-04-04T03:42:00.806Z,66.28
2023-04-04T03:43:00.816Z,66.28
2023-04-04T03:44:02.613Z,66.28
2023-04-04T03:45:00.891Z,66.28
2023-04-04T03:46:01.407Z,66.28
2023-04-04T03:47:00.766Z,66.52
2023-04-04T03:48:00.954Z,66.52
2023-04-04T03:49:00.751Z,66.52
2023-04-04T03:50:00.771Z,66.52
2023-04-04T03:51:01.840Z,66.52
2023-04-04T03:52:00.775Z,67.01
2023-04-04T03:53:00.850Z,67.01
2023-04-04T03:54:00.775Z,67.01
2023-04-04T03:55:00.736Z,67.01
2023-04-04T03:56:00.862Z,67.01
2023-04-04T03:57:00.802Z,67.52
2023-04-04T03:58:00.795Z,67.52
2023-04-04T03:59:00.842Z,67.52
2023-04-04T04:00:01.798Z,67.52
2023-04-04T04:01:00.769Z,67.52
2023-04-04T04:02:00.874Z,68.03
2023-04-04T04:03:00.882Z,68.03
2023-04-04T04:04:00.765Z,68.03
2023-04-04T04:05:01.137Z,68.03
2023-04-04T04:06:00.867Z,68.03
2023-04-04T04:07:00.750Z,68.55
2023-04-04T04:08:00.879Z,68.55
2023-04-04T04:09:00.747Z,68.55
2023-04-04T04:10:01.030Z,68.55
2023-04-04T04:11:04.429Z,68.55
2023-04-04T04:12:00.766Z,68.69
2023-04-04T04:13:00.772Z,68.69
2023-04-04T04:14:00.781Z,68.69
2023-04-04T04:15:01.014Z,68.69
2023-04-04T04:16:00.812Z,68.69
2023-04-04T04:17:00.743Z,68.86
2023-04-04T04:18:00.881Z,68.86
2023-04-04T04:19:00.807Z,68.86
2023-04-04T04:20:00.970Z,68.86
2023-04-04T04:21:00.904Z,68.86
2023-04-04T04:22:00.773Z,69.12
2023-04-04T04:23:00.778Z,69.12
2023-04-04T04:24:00.887Z,69.12
2023-04-04T04:25:01.015Z,69.12
2023-04-04T04:26:00.853Z,69.12
2023-04-04T04:27:00.768Z,69.30
2023-04-04T04:28:00.811Z,69.30
2023-04-04T04:29:00.753Z,69.30
2023-04-04T04:30:01.003Z,69.30
2023-04-04T04:31:04.792Z,69.30
2023-04-04T04:32:01.033Z,69.58
2023-04-04T04:33:00.773Z,69.58
2023-04-04T04:34:03.693Z,69.58
2023-04-04T04:35:01.009Z,69.58
2023-04-04T04:36:02.214Z,69.58
2023-04-04T04:37:00.781Z,69.92
2023-04-04T04:38:00.770Z,69.92
2023-04-04T04:39:00.749Z,69.92
2023-04-04T04:40:03.488Z,69.92
2023-04-04T04:41:00.756Z,69.92
2023-04-04T04:42:00.879Z,70.03
2023-04-04T04:43:00.788Z,70.03
2023-04-04T04:44:00.757Z,70.03
2023-04-04T04:45:00.794Z,70.03
2023-04-04T04:46:00.761Z,70.03
2023-04-04T04:47:02.247Z,70.12
2023-04-04T04:48:00.937Z,70.12
2023-04-04T04:49:00.973Z,70.12
2023-04-04T04:50:00.749Z,70.12
2023-04-04T04:51:00.756Z,70.12
2023-04-04T04:52:00.783Z,70.29
2023-04-04T04:53:00.784Z,70.29
2023-04-04T04:54:00.796Z,70.29
2023-04-04T04:55:00.771Z,70.29
2023-04-04T04:56:00.768Z,70.29
2023-04-04T04:57:00.763Z,70.44
2023-04-04T04:58:00.752Z,70.44
2023-04-04T04:59:00.837Z,70.44
2023-04-04T05:00:00.987Z,70.44
2023-04-04T05:01:00.768Z,70.44
2023-04-04T05:02:00.792Z,70.37
2023-04-04T05:03:00.853Z,70.37
2023-04-04T05:04:00.782Z,70.37
2023-04-04T05:05:00.757Z,70.37
2023-04-04T05:06:00.776Z,70.37
2023-04-04T05:07:01.033Z,70.45
2023-04-04T05:08:01.471Z,70.45
2023-04-04T05:09:00.786Z,70.45
2023-04-04T05:10:00.753Z,70.45
2023-04-04T05:11:01.291Z,70.45
2023-04-04T05:12:00.755Z,70.53
2023-04-04T05:13:00.819Z,70.53
2023-04-04T05:14:00.929Z,70.53
2023-04-04T05:15:00.917Z,70.53
2023-04-04T05:16:00.833Z,70.53
2023-04-04T05:17:00.782Z,70.81
2023-04-04T05:18:00.814Z,70.81
2023-04-04T05:19:00.792Z,70.81
2023-04-04T05:20:00.815Z,70.81
2023-04-04T05:21:00.751Z,70.81
2023-04-04T05:22:00.748Z,71.31
2023-04-04T05:23:00.762Z,71.31
2023-04-04T05:24:00.783Z,71.31
2023-04-04T05:25:00.854Z,71.31
2023-04-04T05:26:00.763Z,71.31
2023-04-04T05:27:00.781Z,71.53
2023-04-04T05:28:00.760Z,71.53
2023-04-04T05:29:00.763Z,71.53
2023-04-04T05:30:00.794Z,71.53
2023-04-04T05:31:00.769Z,71.53
2023-04-04T05:32:00.778Z,71.80
2023-04-04T05:33:00.788Z,71.80
2023-04-04T05:34:00.765Z,71.80
2023-04-04T05:35:00.841Z,71.80
2023-04-04T05:36:00.863Z,71.80
2023-04-04T05:37:00.746Z,71.78
2023-04-04T05:38:00.774Z,71.78
2023-04-04T05:39:01.100Z,71.78
2023-04-04T05:40:00.771Z,71.78
2023-04-04T05:41:00.744Z,71.78
2023-04-04T05:42:00.738Z,72.24
2023-04-04T05:43:00.745Z,72.24
2023-04-04T05:44:00.808Z,72.24
2023-04-04T05:45:00.800Z,72.24
2023-04-04T05:46:00.918Z,72.24
2023-04-04T05:47:00.763Z,72.30
2023-04-04T05:48:00.763Z,72.30
2023-04-04T05:49:00.782Z,72.30
2023-04-04T05:50:00.750Z,72.30
2023-04-04T05:51:00.763Z,72.30
2023-04-04T05:52:00.740Z,72.39
2023-04-04T05:53:00.755Z,72.39
2023-04-04T05:54:00.751Z,72.39
2023-04-04T05:55:00.782Z,72.39
2023-04-04T05:56:00.766Z,72.39
2023-04-04T05:57:00.760Z,72.51
2023-04-04T05:58:00.839Z,72.51
2023-04-04T05:59:00.865Z,72.51
2023-04-04T06:00:00.781Z,72.51
2023-04-04T06:01:00.764Z,72.51
2023-04-04T06:02:00.755Z,72.52
2023-04-04T06:03:00.920Z,72.52
2023-04-04T06:04:00.801Z,72.52
2023-04-04T06:05:00.757Z,72.52
2023-04-04T06:06:01.371Z,72.52
2023-04-04T06:07:00.772Z,72.58
2023-04-04T06:08:00.757Z,72.58
2023-04-04T06:09:00.897Z,72.58
2023-04-04T06:10:00.989Z,72.58
2023-04-04T06:11:00.749Z,72.58
2023-04-04T06:12:01.078Z,72.59
2023-04-04T06:13:00.750Z,72.59
2023-04-04T06:14:00.810Z,72.59
2023-04-04T06:15:00.765Z,72.59
2023-04-04T06:16:00.915Z,72.59
2023-04-04T06:17:01.197Z,72.63
2023-04-04T06:18:01.015Z,72.63
2023-04-04T06:19:00.765Z,72.63
2023-04-04T06:20:00.746Z,72.63
2023-04-04T06:21:00.787Z,72.63
2023-04-04T06:22:00.752Z,72.64
2023-04-04T06:23:00.762Z,72.64
2023-04-04T06:24:00.780Z,72.64
2023-04-04T06:25:00.966Z,72.64
2023-04-04T06:26:01.236Z,72.64
2023-04-04T06:27:00.739Z,72.67
2023-04-04T06:28:00.832Z,72.67
2023-04-04T06:29:00.785Z,72.67
2023-04-04T06:30:01.236Z,72.67
2023-04-04T06:31:00.915Z,72.67
2023-04-04T06:32:00.797Z,72.95
2023-04-04T06:33:00.778Z,72.95
2023-04-04T06:34:00.761Z,72.95
2023-04-04T06:35:00.855Z,72.95
2023-04-04T06:36:00.773Z,72.95
2023-04-04T06:37:00.735Z,73.21
2023-04-04T06:38:00.763Z,73.21
2023-04-04T06:39:00.864Z,73.21
2023-04-04T06:40:00.778Z,73.21
2023-04-04T06:41:00.803Z,73.21
2023-04-04T06:42:00.750Z,73.06
2023-04-04T06:43:00.778Z,73.06
2023-04-04T06:44:00.817Z,73.06
2023-04-04T06:45:00.767Z,73.06
2023-04-04T06:46:00.784Z,73.06
2023-04-04T06:47:00.878Z,72.86
2023-04-04T06:48:00.986Z,72.86
2023-04-04T06:49:00.767Z,72.86
2023-04-04T06:50:00.804Z,72.86
2023-04-04T06:51:03.718Z,72.86
2023-04-04T06:52:01.023Z,72.74
2023-04-04T06:53:00.873Z,72.74
2023-04-04T06:54:00.813Z,72.74
2023-04-04T06:55:00.810Z,72.74
2023-04-04T06:56:00.808Z,72.74
2023-04-04T06:57:00.824Z,72.65
2023-04-04T06:58:00.761Z,72.65
2023-04-04T06:59:00.789Z,72.65
2023-04-04T07:00:01.385Z,72.65
2023-04-04T07:01:00.893Z,72.65
2023-04-04T07:02:00.789Z,72.72
2023-04-04T07:03:00.812Z,72.72
2023-04-04T07:04:00.812Z,72.72
2023-04-04T07:05:00.892Z,72.72
2023-04-04T07:06:02.353Z,72.72
2023-04-04T07:07:00.774Z,72.47
2023-04-04T07:08:00.754Z,72.47
2023-04-04T07:09:00.844Z,72.47
2023-04-04T07:10:01.143Z,72.47
2023-04-04T07:11:00.765Z,72.47
2023-04-04T07:12:00.765Z,72.15
2023-04-04T07:13:00.763Z,72.15
2023-04-04T07:14:00.760Z,72.15
2023-04-04T07:15:01.254Z,72.15
2023-04-04T07:16:00.867Z,72.15
2023-04-04T07:17:02.139Z,72.23
2023-04-04T07:18:00.788Z,72.23
2023-04-04T07:19:01.007Z,72.23
2023-04-04T07:20:02.965Z,72.23
2023-04-04T07:21:00.775Z,72.23
2023-04-04T07:22:00.762Z,71.90
2023-04-04T07:23:00.744Z,71.90
2023-04-04T07:24:00.879Z,71.90
2023-04-04T07:25:00.756Z,71.90
2023-04-04T07:26:00.755Z,71.90
2023-04-04T07:27:00.756Z,71.96
2023-04-04T07:28:11.705Z,71.96
2023-04-04T07:29:00.784Z,71.96
2023-04-04T07:30:00.869Z,71.96
2023-04-04T07:31:00.814Z,71.96
2023-04-04T07:32:00.802Z,71.51
2023-04-04T07:33:01.570Z,71.51
2023-04-04T07:34:00.775Z,71.51
2023-04-04T07:35:00.742Z,71.51
2023-04-04T07:36:00.922Z,71.51
2023-04-04T07:37:00.740Z,71.51
2023-04-04T07:38:00.756Z,71.51
2023-04-04T07:39:00.766Z,71.51
2023-04-04T07:40:00.824Z,71.51
2023-04-04T07:41:02.442Z,71.51
2023-04-04T07:42:00.753Z,71.34
2023-04-04T07:43:00.748Z,71.34
2023-04-04T07:44:00.776Z,71.34
2023-04-04T07:45:00.757Z,71.34
2023-04-04T07:46:00.902Z,71.34
2023-04-04T07:47:09.208Z,71.20
2023-04-04T07:48:00.782Z,71.20
2023-04-04T07:49:00.767Z,71.20
2023-04-04T07:50:00.898Z,71.20
2023-04-04T07:51:02.364Z,71.20
2023-04-04T07:52:00.752Z,71.06
2023-04-04T07:53:00.750Z,71.06
2023-04-04T07:54:00.749Z,71.06
2023-04-04T07:55:00.761Z,71.06
2023-04-04T07:56:00.779Z,71.06
2023-04-04T07:57:00.742Z,70.86
2023-04-04T07:58:00.750Z,70.86
2023-04-04T07:59:00.813Z,70.86
2023-04-04T08:00:00.801Z,70.86
2023-04-04T08:01:01.401Z,70.86
2023-04-04T08:02:00.796Z,70.64
2023-04-04T08:03:00.765Z,70.64
2023-04-04T08:04:00.960Z,70.64
2023-04-04T08:05:00.786Z,70.64
2023-04-04T08:06:00.756Z,70.64
2023-04-04T08:07:00.739Z,70.06
2023-04-04T08:08:00.764Z,70.06
2023-04-04T08:09:00.730Z,70.06
2023-04-04T08:10:00.761Z,70.06
2023-04-04T08:11:00.756Z,70.06
2023-04-04T08:12:01.244Z,69.58
2023-04-04T08:13:00.742Z,69.58
2023-04-04T08:14:00.779Z,69.58
2023-04-04T08:15:00.786Z,69.58
2023-04-04T08:16:00.791Z,69.58
2023-04-04T08:17:00.733Z,68.19
2023-04-04T08:18:00.925Z,68.19
2023-04-04T08:19:00.828Z,68.19
2023-04-04T08:20:00.856Z,68.19
2023-04-04T08:21:00.768Z,68.19
2023-04-04T08:22:00.737Z,67.63
2023-04-04T08:23:00.805Z,67.63
2023-04-04T08:24:00.798Z,67.63
2023-04-04T08:25:01.019Z,67.63
2023-04-04T08:26:00.808Z,67.63
2023-04-04T08:28:01.295Z,66.90
2023-04-04T08:29:00.793Z,66.90
2023-04-04T08:30:00.763Z,66.90
2023-04-04T08:31:00.779Z,66.90
2023-04-04T08:32:00.795Z,63.44
2023-04-04T08:33:00.764Z,63.44
2023-04-04T08:34:00.748Z,63.44
2023-04-04T08:35:01.028Z,63.44
2023-04-04T08:36:00.769Z,63.44
2023-04-04T08:37:00.744Z,62.84
2023-04-04T08:38:00.756Z,62.84
2023-04-04T08:39:00.757Z,62.84
2023-04-04T08:40:01.680Z,62.84
2023-04-04T08:41:00.802Z,62.84
2023-04-04T08:42:02.230Z,61.03
2023-04-04T08:43:00.794Z,61.03
2023-04-04T08:44:01.928Z,61.03
2023-04-04T08:45:01.740Z,61.03
2023-04-04T08:46:02.848Z,61.03
2023-04-04T08:47:02.083Z,61.76
2023-04-04T08:48:02.935Z,61.76
2023-04-04T08:49:01.964Z,61.76
2023-04-04T08:50:03.232Z,61.76
2023-04-04T08:51:02.369Z,61.76
2023-04-04T08:52:01.661Z,62.17
2023-04-04T08:53:00.945Z,62.17
2023-04-04T08:54:01.814Z,62.17
2023-04-04T08:55:03.728Z,62.17
2023-04-04T08:56:00.822Z,62.17
2023-04-04T08:57:00.828Z,62.22
2023-04-04T08:58:00.864Z,62.22
2023-04-04T08:59:00.892Z,62.22
2023-04-04T09:00:00.924Z,62.22
2023-04-04T09:01:00.788Z,62.22
2023-04-04T09:02:08.110Z,61.73
2023-04-04T09:03:08.285Z,61.73
2023-04-04T09:04:00.905Z,61.73
2023-04-04T09:06:01.332Z,61.73
2023-04-04T09:07:02.308Z,61.79
2023-04-04T09:08:01.603Z,61.79
2023-04-04T09:09:01.770Z,61.79
2023-04-04T09:10:01.921Z,61.79
2023-04-04T09:11:01.562Z,61.79
2023-04-04T09:12:00.859Z,61.01
2023-04-04T09:13:14.463Z,61.01
2023-04-04T09:14:01.344Z,61.01
2023-04-04T09:15:01.308Z,61.01
2023-04-04T09:16:00.772Z,61.01
2023-04-04T09:17:00.996Z,60.75
2023-04-04T09:18:00.801Z,60.75
2023-04-04T09:19:00.794Z,60.75
2023-04-04T09:20:01.348Z,60.75
2023-04-04T09:21:07.518Z,60.75
2023-04-04T09:22:00.747Z,60.65
2023-04-04T09:23:00.963Z,60.65
2023-04-04T09:24:00.932Z,60.65
2023-04-04T09:25:00.774Z,60.65
2023-04-04T09:26:04.501Z,60.65
2023-04-04T09:27:00.844Z,60.43
2023-04-04T09:28:01.477Z,60.43
2023-04-04T09:29:00.746Z,60.43
2023-04-04T09:30:03.868Z,60.43
2023-04-04T09:31:02.616Z,60.43
2023-04-04T09:32:00.784Z,60.02
2023-04-04T09:33:04.396Z,60.02
2023-04-04T09:34:00.823Z,60.02
2023-04-04T09:35:00.792Z,60.02
2023-04-04T09:36:02.270Z,60.02
2023-04-04T09:37:02.309Z,57.33
2023-04-04T09:38:00.953Z,57.33
2023-04-04T09:39:01.938Z,57.33
2023-04-04T09:40:03.325Z,57.33
2023-04-04T09:41:01.003Z,57.33
2023-04-04T09:42:00.999Z,55.03
2023-04-04T09:43:01.645Z,55.03
2023-04-04T09:44:00.820Z,55.03
2023-04-04T09:45:01.385Z,55.03
2023-04-04T09:46:02.211Z,55.03
2023-04-04T09:47:13.595Z,54.53
2023-04-04T09:48:01.125Z,54.53
2023-04-04T09:49:00.758Z,54.53
2023-04-04T09:50:01.721Z,54.53
2023-04-04T09:51:03.535Z,54.53
2023-04-04T09:52:00.776Z,54.34
2023-04-04T09:53:00.805Z,54.34
2023-04-04T09:54:01.178Z,54.34
2023-04-04T09:55:01.772Z,54.34
2023-04-04T09:56:00.829Z,54.34
2023-04-04T09:57:00.808Z,54.96
2023-04-04T09:58:10.669Z,54.96
2023-04-04T09:59:04.314Z,54.96
2023-04-04T10:00:02.970Z,54.96
2023-04-04T10:01:01.434Z,54.96
2023-04-04T10:02:00.991Z,55.75
2023-04-04T10:03:01.545Z,55.75
2023-04-04T10:04:02.826Z,55.75
2023-04-04T10:06:04.285Z,55.75
2023-04-04T10:07:00.778Z,55.88
2023-04-04T10:08:10.667Z,55.88
2023-04-04T10:09:00.769Z,55.88
2023-04-04T10:10:00.954Z,55.88
2023-04-04T10:11:09.767Z,55.88
2023-04-04T10:12:08.724Z,54.83
2023-04-04T10:13:00.755Z,54.83
2023-04-04T10:14:01.186Z,54.83
2023-04-04T10:15:01.134Z,54.83
2023-04-04T10:16:01.532Z,54.83
2023-04-04T10:17:06.155Z,54.85
2023-04-04T10:18:01.259Z,54.85
2023-04-04T10:19:00.813Z,54.85
2023-04-04T10:20:02.628Z,54.85
2023-04-04T10:21:12.161Z,54.85
2023-04-04T10:22:01.001Z,56.13
2023-04-04T10:23:00.966Z,56.13
2023-04-04T10:24:01.821Z,56.13
2023-04-04T10:25:01.225Z,56.13
2023-04-04T10:26:00.757Z,56.13
2023-04-04T10:27:00.776Z,56.28
2023-04-04T10:28:00.784Z,56.28
2023-04-04T10:29:00.933Z,56.28
2023-04-04T10:30:00.942Z,56.28
2023-04-04T10:31:10.731Z,56.28
2023-04-04T10:32:03.971Z,56.07
2023-04-04T10:33:05.667Z,56.07
2023-04-04T10:34:10.690Z,56.07
2023-04-04T10:35:03.049Z,56.07
2023-04-04T10:36:02.561Z,56.07
2023-04-04T10:37:12.979Z,53.73
2023-04-04T10:38:01.694Z,53.73
2023-04-04T10:39:08.810Z,53.73
2023-04-04T10:40:04.547Z,53.73
2023-04-04T10:41:01.208Z,53.73
2023-04-04T10:42:03.561Z,53.25
2023-04-04T10:43:01.952Z,53.25
2023-04-04T10:44:08.953Z,53.25
2023-04-04T10:45:12.892Z,53.25
2023-04-04T10:46:06.987Z,53.25
2023-04-04T10:47:10.670Z,53.90
2023-04-04T10:48:02.749Z,53.90
2023-04-04T10:49:01.119Z,53.90
2023-04-04T10:50:01.855Z,53.90
2023-04-04T10:51:01.347Z,53.90
2023-04-04T10:52:01.152Z,53.98
2023-04-04T10:53:01.378Z,53.98
2023-04-04T10:54:01.241Z,53.98
2023-04-04T10:55:03.604Z,53.98
2023-04-04T10:56:01.208Z,53.98
2023-04-04T10:57:01.184Z,53.90
2023-04-04T10:58:00.777Z,53.90
2023-04-04T10:59:08.618Z,53.90
2023-04-04T11:00:09.333Z,53.90
2023-04-04T11:01:00.785Z,53.90
2023-04-04T11:02:01.663Z,53.71
2023-04-04T11:03:01.148Z,53.71
2023-04-04T11:04:10.761Z,53.71
2023-04-04T11:05:09.152Z,53.71
2023-04-04T11:06:00.768Z,53.71
2023-04-04T11:07:04.027Z,51.96
2023-04-04T11:08:08.356Z,51.96
2023-04-04T11:09:00.752Z,51.96
2023-04-04T11:10:00.760Z,51.96
2023-04-04T11:11:05.101Z,51.96
2023-04-04T11:12:08.281Z,52.91
2023-04-04T11:13:11.742Z,52.91
2023-04-04T11:14:03.722Z,52.91
2023-04-04T11:15:00.807Z,52.91
2023-04-04T11:16:00.758Z,52.91
2023-04-04T11:17:03.697Z,53.42
2023-04-04T11:18:08.103Z,53.42
2023-04-04T11:19:00.854Z,53.42
2023-04-04T11:20:00.770Z,53.42
2023-04-04T11:21:01.418Z,53.42
2023-04-04T11:22:01.596Z,53.29
2023-04-04T11:23:01.667Z,53.29
2023-04-04T11:24:04.043Z,53.29
2023-04-04T11:25:10.803Z,53.29
2023-04-04T11:26:00.788Z,53.29
2023-04-04T11:27:00.789Z,51.24
2023-04-04T11:28:10.839Z,51.24
2023-04-04T11:29:02.231Z,51.24
2023-04-04T11:30:10.693Z,51.24
2023-04-04T11:31:10.675Z,51.24
2023-04-04T11:32:00.815Z,52.08
2023-04-04T11:33:07.054Z,52.08
2023-04-04T11:34:00.766Z,52.08
2023-04-04T11:35:03.647Z,52.08
2023-04-04T11:36:06.155Z,52.08
2023-04-04T11:37:10.677Z,51.70
2023-04-04T11:38:00.767Z,51.70
2023-04-04T11:39:03.797Z,51.70
2023-04-04T11:40:08.006Z,51.70
2023-04-04T11:41:00.813Z,51.70
2023-04-04T11:42:00.746Z,50.49
2023-04-04T11:43:05.752Z,50.49
2023-04-04T11:44:07.191Z,50.49
2023-04-04T11:45:03.118Z,50.49
2023-04-04T11:46:04.583Z,50.49
2023-04-04T11:47:09.129Z,50.36
2023-04-04T11:48:02.096Z,50.36
2023-04-04T11:49:01.472Z,50.36
2023-04-04T11:50:06.006Z,50.36
2023-04-04T11:51:02.074Z,50.36
2023-04-04T11:52:09.411Z,51.53
2023-04-04T11:53:03.909Z,51.53
2023-04-04T11:54:01.692Z,51.53
2023-04-04T11:55:00.920Z,51.53
2023-04-04T11:56:00.752Z,51.53
2023-04-04T11:57:00.803Z,51.25
2023-04-04T11:58:12.140Z,51.25
2023-04-04T11:59:10.977Z,51.25
2023-04-04T12:00:00.756Z,51.25
2023-04-04T12:01:00.802Z,51.25
2023-04-04T12:02:00.817Z,50.78
2023-04-04T12:03:00.984Z,50.78
2023-04-04T12:04:00.837Z,50.78
2023-04-04T12:05:00.910Z,50.78
2023-04-04T12:06:00.943Z,50.78
2023-04-04T12:07:01.018Z,49.33
2023-04-04T12:08:00.826Z,49.33
2023-04-04T12:09:01.612Z,49.33
2023-04-04T12:10:01.683Z,49.33
2023-04-04T12:11:06.086Z,49.33
2023-04-04T12:12:00.809Z,50.43
2023-04-04T12:13:01.405Z,50.43
2023-04-04T12:14:00.846Z,50.43
2023-04-04T12:15:14.361Z,50.43
2023-04-04T12:16:01.329Z,50.43
2023-04-04T12:17:01.539Z,50.26
2023-04-04T12:18:01.197Z,50.26
2023-04-04T12:19:00.796Z,50.26
2023-04-04T12:20:00.811Z,50.26
2023-04-04T12:21:00.809Z,50.26
2023-04-04T12:22:00.791Z,50.42
2023-04-04T12:23:00.793Z,50.42
2023-04-04T12:24:00.813Z,50.42
2023-04-04T12:25:01.081Z,50.42
2023-04-04T12:26:01.018Z,50.42
2023-04-04T12:27:01.443Z,48.13
2023-04-04T12:28:01.499Z,48.13
2023-04-04T12:29:00.837Z,48.13
2023-04-04T12:30:01.121Z,48.13
2023-04-04T12:31:01.180Z,48.13
2023-04-04T12:32:01.012Z,46.86
2023-04-04T12:33:00.899Z,46.86
2023-04-04T12:34:00.915Z,46.86
2023-04-04T12:35:01.313Z,46.86
2023-04-04T12:36:01.426Z,46.86
2023-04-04T12:37:01.371Z,46.14
2023-04-04T12:38:01.948Z,46.14
2023-04-04T12:39:03.651Z,46.14
2023-04-04T12:40:00.907Z,46.14
2023-04-04T12:41:01.599Z,46.14
2023-04-04T12:42:02.370Z,48.80
2023-04-04T12:43:00.775Z,48.80
2023-04-04T12:44:01.663Z,48.80
2023-04-04T12:45:01.029Z,48.80
2023-04-04T12:46:01.074Z,48.80
2023-04-04T12:47:02.420Z,47.68
2023-04-04T12:48:07.096Z,47.68
2023-04-04T12:49:02.244Z,47.68
2023-04-04T12:50:00.843Z,47.68
2023-04-04T12:51:00.836Z,47.68
2023-04-04T12:52:02.673Z,46.75
2023-04-04T12:53:23.994Z,46.75
2023-04-04T12:54:00.909Z,46.75
2023-04-04T12:55:08.969Z,46.75